sensor_id;sensor_type;location;lat;lon;timestamp;temperature;humidity
13433;DHT22;6789;47.678;9.158;2023-04-25T00:01:32;10.10;99.90
13433;DHT22;6789;47.678;9.158;2023-04-25T00:06:40;10.00;99.90
13433;DHT22;6789;47.678;9.158;2023-04-25T00:11:32;10.00;99.90
13433;DHT22;6789;47.678;9.158;2023-04-25T00:21:45;10.00;99.90
13433;DHT22;6789;47.678;9.158;2023-04-25T00:26:47;10.10;99.90
13433;DHT22;6789;47.678;9.158;2023-04-25T00:31:39;10.10;99.90
13433;DHT22;6789;47.678;9.158;2023-04-25T00:36:30;10.10;99.90
13433;DHT22;6789;47.678;9.158;2023-04-25T00:41:22;10.00;99.90
13433;DHT22;6789;47.678;9.158;2023-04-25T00:46:16;9.90;99.90
13433;DHT22;6789;47.678;9.158;2023-04-25T00:51:09;9.70;99.90
13433;DHT22;6789;47.678;9.158;2023-04-25T00:56:07;9.60;99.90
13433;DHT22;6789;47.678;9.158;2023-04-25T01:00:59;9.50;99.90
13433;DHT22;6789;47.678;9.158;2023-04-25T01:05:52;9.40;99.90
13433;DHT22;6789;47.678;9.158;2023-04-25T01:10:44;9.40;99.90
13433;DHT22;6789;47.678;9.158;2023-04-25T01:15:36;9.30;99.90
13433;DHT22;6789;47.678;9.158;2023-04-25T01:20:28;9.30;99.90
13433;DHT22;6789;47.678;9.158;2023-04-25T01:25:21;9.30;99.90
13433;DHT22;6789;47.678;9.158;2023-04-25T01:30:14;9.40;99.90
13433;DHT22;6789;47.678;9.158;2023-04-25T01:35:08;9.30;99.90
13433;DHT22;6789;47.678;9.158;2023-04-25T01:40:03;9.20;99.90
13433;DHT22;6789;47.678;9.158;2023-04-25T01:44:56;9.10;99.90
13433;DHT22;6789;47.678;9.158;2023-04-25T01:49:48;9.00;99.90
13433;DHT22;6789;47.678;9.158;2023-04-25T01:54:40;8.90;99.90
13433;DHT22;6789;47.678;9.158;2023-04-25T01:59:36;8.80;99.90
13433;DHT22;6789;47.678;9.158;2023-04-25T02:04:28;8.70;99.90
13433;DHT22;6789;47.678;9.158;2023-04-25T02:09:20;8.60;99.90
13433;DHT22;6789;47.678;9.158;2023-04-25T02:14:12;8.50;99.90
13433;DHT22;6789;47.678;9.158;2023-04-25T02:19:03;8.30;99.90
13433;DHT22;6789;47.678;9.158;2023-04-25T02:23:55;8.20;99.90
13433;DHT22;6789;47.678;9.158;2023-04-25T02:28:48;8.20;99.90
13433;DHT22;6789;47.678;9.158;2023-04-25T02:33:39;7.90;99.90
13433;DHT22;6789;47.678;9.158;2023-04-25T02:38:31;7.80;99.90
13433;DHT22;6789;47.678;9.158;2023-04-25T02:43:23;7.80;99.90
13433;DHT22;6789;47.678;9.158;2023-04-25T02:48:14;7.70;99.90
13433;DHT22;6789;47.678;9.158;2023-04-25T02:53:06;7.60;99.90
13433;DHT22;6789;47.678;9.158;2023-04-25T02:58:13;7.60;99.90
13433;DHT22;6789;47.678;9.158;2023-04-25T03:03:04;7.60;99.90
13433;DHT22;6789;47.678;9.158;2023-04-25T03:07:56;7.50;99.90
13433;DHT22;6789;47.678;9.158;2023-04-25T03:12:48;7.30;99.90
13433;DHT22;6789;47.678;9.158;2023-04-25T03:17:40;7.20;99.90
13433;DHT22;6789;47.678;9.158;2023-04-25T03:22:32;7.10;99.90
13433;DHT22;6789;47.678;9.158;2023-04-25T03:27:23;7.00;99.90
13433;DHT22;6789;47.678;9.158;2023-04-25T03:32:15;7.00;99.90
13433;DHT22;6789;47.678;9.158;2023-04-25T03:37:07;7.00;99.90
13433;DHT22;6789;47.678;9.158;2023-04-25T03:41:59;7.00;99.90
13433;DHT22;6789;47.678;9.158;2023-04-25T03:46:51;7.10;99.90
13433;DHT22;6789;47.678;9.158;2023-04-25T03:51:42;7.20;99.90
13433;DHT22;6789;47.678;9.158;2023-04-25T03:56:34;7.10;99.90
13433;DHT22;6789;47.678;9.158;2023-04-25T04:01:26;7.00;99.90
13433;DHT22;6789;47.678;9.158;2023-04-25T04:06:18;6.90;99.90
13433;DHT22;6789;47.678;9.158;2023-04-25T04:11:12;6.80;99.90
13433;DHT22;6789;47.678;9.158;2023-04-25T04:16:04;6.70;99.90
13433;DHT22;6789;47.678;9.158;2023-04-25T04:20:56;6.70;99.90
13433;DHT22;6789;47.678;9.158;2023-04-25T04:25:51;6.70;99.90
13433;DHT22;6789;47.678;9.158;2023-04-25T04:30:47;6.70;99.90
13433;DHT22;6789;47.678;9.158;2023-04-25T04:35:42;6.80;99.90
13433;DHT22;6789;47.678;9.158;2023-04-25T04:40:34;6.90;99.90
13433;DHT22;6789;47.678;9.158;2023-04-25T04:45:26;7.00;99.90
13433;DHT22;6789;47.678;9.158;2023-04-25T04:50:18;7.10;99.90
13433;DHT22;6789;47.678;9.158;2023-04-25T04:55:11;7.40;99.90
13433;DHT22;6789;47.678;9.158;2023-04-25T05:00:04;7.80;99.90
13433;DHT22;6789;47.678;9.158;2023-04-25T05:05:01;9.20;99.90
13433;DHT22;6789;47.678;9.158;2023-04-25T05:09:53;10.20;99.90
13433;DHT22;6789;47.678;9.158;2023-04-25T05:14:45;10.80;99.90
13433;DHT22;6789;47.678;9.158;2023-04-25T05:19:37;10.50;99.90
13433;DHT22;6789;47.678;9.158;2023-04-25T05:24:29;10.20;99.90
13433;DHT22;6789;47.678;9.158;2023-04-25T05:29:21;9.80;99.90
13433;DHT22;6789;47.678;9.158;2023-04-25T05:34:13;9.70;99.90
13433;DHT22;6789;47.678;9.158;2023-04-25T05:39:05;9.90;99.90
13433;DHT22;6789;47.678;9.158;2023-04-25T05:44:33;10.10;99.90
13433;DHT22;6789;47.678;9.158;2023-04-25T05:49:28;10.60;99.90
13433;DHT22;6789;47.678;9.158;2023-04-25T05:54:20;10.90;99.90
13433;DHT22;6789;47.678;9.158;2023-04-25T05:59:11;10.60;99.90
13433;DHT22;6789;47.678;9.158;2023-04-25T06:04:03;10.60;99.90
13433;DHT22;6789;47.678;9.158;2023-04-25T06:09:03;10.80;99.90
13433;DHT22;6789;47.678;9.158;2023-04-25T06:13:54;11.10;99.90
13433;DHT22;6789;47.678;9.158;2023-04-25T06:18:46;10.90;99.90
13433;DHT22;6789;47.678;9.158;2023-04-25T06:23:38;11.00;99.90
13433;DHT22;6789;47.678;9.158;2023-04-25T06:28:30;10.90;99.90
13433;DHT22;6789;47.678;9.158;2023-04-25T06:33:22;11.10;99.90
13433;DHT22;6789;47.678;9.158;2023-04-25T06:38:30;11.60;99.90
13433;DHT22;6789;47.678;9.158;2023-04-25T06:43:23;12.00;99.90
13433;DHT22;6789;47.678;9.158;2023-04-25T06:48:15;12.60;99.90
13433;DHT22;6789;47.678;9.158;2023-04-25T06:53:08;12.70;99.90
13433;DHT22;6789;47.678;9.158;2023-04-25T06:58:00;12.90;99.90
13433;DHT22;6789;47.678;9.158;2023-04-25T07:02:51;13.10;99.90
13433;DHT22;6789;47.678;9.158;2023-04-25T07:07:48;12.90;99.90
13433;DHT22;6789;47.678;9.158;2023-04-25T07:12:40;12.60;99.90
13433;DHT22;6789;47.678;9.158;2023-04-25T07:17:32;12.50;99.90
13433;DHT22;6789;47.678;9.158;2023-04-25T07:22:26;12.20;99.90
13433;DHT22;6789;47.678;9.158;2023-04-25T07:27:19;11.80;99.90
13433;DHT22;6789;47.678;9.158;2023-04-25T07:32:11;11.20;99.90
13433;DHT22;6789;47.678;9.158;2023-04-25T07:37:05;10.30;99.90
13433;DHT22;6789;47.678;9.158;2023-04-25T07:41:58;9.30;99.90
13433;DHT22;6789;47.678;9.158;2023-04-25T07:46:50;8.60;99.90
13433;DHT22;6789;47.678;9.158;2023-04-25T07:51:43;8.50;99.90
13433;DHT22;6789;47.678;9.158;2023-04-25T07:56:35;8.60;99.90
13433;DHT22;6789;47.678;9.158;2023-04-25T08:01:42;8.40;99.90
13433;DHT22;6789;47.678;9.158;2023-04-25T08:06:35;8.40;99.90
13433;DHT22;6789;47.678;9.158;2023-04-25T08:11:27;8.40;99.90
13433;DHT22;6789;47.678;9.158;2023-04-25T08:16:20;8.40;99.90
13433;DHT22;6789;47.678;9.158;2023-04-25T08:21:12;8.50;99.90
13433;DHT22;6789;47.678;9.158;2023-04-25T08:26:13;8.60;99.90
13433;DHT22;6789;47.678;9.158;2023-04-25T08:31:19;8.50;99.90
13433;DHT22;6789;47.678;9.158;2023-04-25T08:36:26;8.30;99.90
13433;DHT22;6789;47.678;9.158;2023-04-25T08:41:22;8.30;99.90
13433;DHT22;6789;47.678;9.158;2023-04-25T08:46:18;8.40;99.90
13433;DHT22;6789;47.678;9.158;2023-04-25T08:51:10;8.40;99.90
13433;DHT22;6789;47.678;9.158;2023-04-25T08:56:07;8.40;99.90
13433;DHT22;6789;47.678;9.158;2023-04-25T09:01:03;8.40;99.90
13433;DHT22;6789;47.678;9.158;2023-04-25T09:06:12;8.40;99.90
13433;DHT22;6789;47.678;9.158;2023-04-25T09:11:19;8.50;99.90
13433;DHT22;6789;47.678;9.158;2023-04-25T09:16:14;8.50;99.90
13433;DHT22;6789;47.678;9.158;2023-04-25T09:21:13;8.80;99.90
13433;DHT22;6789;47.678;9.158;2023-04-25T09:26:07;8.90;99.90
13433;DHT22;6789;47.678;9.158;2023-04-25T09:31:02;9.20;99.90
13433;DHT22;6789;47.678;9.158;2023-04-25T09:36:26;9.60;99.90
13433;DHT22;6789;47.678;9.158;2023-04-25T09:41:27;9.80;99.90
13433;DHT22;6789;47.678;9.158;2023-04-25T09:46:23;9.90;99.90
13433;DHT22;6789;47.678;9.158;2023-04-25T09:51:16;10.00;99.90
13433;DHT22;6789;47.678;9.158;2023-04-25T09:56:12;10.30;99.90
13433;DHT22;6789;47.678;9.158;2023-04-25T10:01:09;10.60;99.90
13433;DHT22;6789;47.678;9.158;2023-04-25T10:06:04;10.60;99.90
13433;DHT22;6789;47.678;9.158;2023-04-25T10:11:04;11.00;99.90
13433;DHT22;6789;47.678;9.158;2023-04-25T10:15:59;11.10;99.90
13433;DHT22;6789;47.678;9.158;2023-04-25T10:21:06;11.30;99.90
13433;DHT22;6789;47.678;9.158;2023-04-25T10:25:59;11.20;99.90
13433;DHT22;6789;47.678;9.158;2023-04-25T10:31:07;11.60;99.90
13433;DHT22;6789;47.678;9.158;2023-04-25T10:41:14;11.60;99.90
13433;DHT22;6789;47.678;9.158;2023-04-25T10:46:29;12.00;99.90
13433;DHT22;6789;47.678;9.158;2023-04-25T10:51:34;12.10;99.90
13433;DHT22;6789;47.678;9.158;2023-04-25T10:56:46;12.20;99.90
13433;DHT22;6789;47.678;9.158;2023-04-25T11:07:30;11.80;99.90
13433;DHT22;6789;47.678;9.158;2023-04-25T11:12:30;11.70;99.90
13433;DHT22;6789;47.678;9.158;2023-04-25T11:17:25;11.80;99.90
13433;DHT22;6789;47.678;9.158;2023-04-25T11:22:18;11.80;99.90
13433;DHT22;6789;47.678;9.158;2023-04-25T11:27:13;12.30;99.90
13433;DHT22;6789;47.678;9.158;2023-04-25T11:32:06;12.30;99.90
13433;DHT22;6789;47.678;9.158;2023-04-25T11:37:02;12.50;99.90
13433;DHT22;6789;47.678;9.158;2023-04-25T11:41:56;12.80;99.90
13433;DHT22;6789;47.678;9.158;2023-04-25T11:46:48;13.40;99.90
13433;DHT22;6789;47.678;9.158;2023-04-25T11:51:44;13.60;99.90
13433;DHT22;6789;47.678;9.158;2023-04-25T11:56:52;13.80;99.90
13433;DHT22;6789;47.678;9.158;2023-04-25T12:01:49;13.40;99.90
13433;DHT22;6789;47.678;9.158;2023-04-25T12:06:48;12.40;99.90
13433;DHT22;6789;47.678;9.158;2023-04-25T12:11:52;12.20;99.90
13433;DHT22;6789;47.678;9.158;2023-04-25T12:16:48;12.10;99.90
13433;DHT22;6789;47.678;9.158;2023-04-25T12:21:54;10.90;99.90
13433;DHT22;6789;47.678;9.158;2023-04-25T12:32:05;10.20;99.90
13433;DHT22;6789;47.678;9.158;2023-04-25T12:37:11;9.90;99.90
13433;DHT22;6789;47.678;9.158;2023-04-25T12:42:04;9.80;99.90
13433;DHT22;6789;47.678;9.158;2023-04-25T12:47:13;10.20;99.90
13433;DHT22;6789;47.678;9.158;2023-04-25T12:52:07;10.80;99.90
13433;DHT22;6789;47.678;9.158;2023-04-25T12:57:14;11.20;99.90
13433;DHT22;6789;47.678;9.158;2023-04-25T13:02:20;11.60;99.90
13433;DHT22;6789;47.678;9.158;2023-04-25T13:07:15;11.70;99.90
13433;DHT22;6789;47.678;9.158;2023-04-25T13:12:22;12.00;99.90
13433;DHT22;6789;47.678;9.158;2023-04-25T13:17:14;12.20;99.90
13433;DHT22;6789;47.678;9.158;2023-04-25T13:22:07;12.40;99.90
13433;DHT22;6789;47.678;9.158;2023-04-25T13:27:13;12.40;99.90
13433;DHT22;6789;47.678;9.158;2023-04-25T13:32:10;12.70;99.90
13433;DHT22;6789;47.678;9.158;2023-04-25T13:37:02;13.00;99.90
13433;DHT22;6789;47.678;9.158;2023-04-25T13:42:10;13.30;99.90
13433;DHT22;6789;47.678;9.158;2023-04-25T13:47:03;13.40;99.90
13433;DHT22;6789;47.678;9.158;2023-04-25T13:51:56;13.30;99.90
13433;DHT22;6789;47.678;9.158;2023-04-25T13:56:57;13.70;99.90
13433;DHT22;6789;47.678;9.158;2023-04-25T14:02:04;14.20;99.90
13433;DHT22;6789;47.678;9.158;2023-04-25T14:07:10;14.00;99.90
13433;DHT22;6789;47.678;9.158;2023-04-25T14:12:04;14.00;99.90
13433;DHT22;6789;47.678;9.158;2023-04-25T14:17:11;14.30;99.90
13433;DHT22;6789;47.678;9.158;2023-04-25T14:22:17;14.30;99.90
13433;DHT22;6789;47.678;9.158;2023-04-25T14:27:24;13.70;99.90
13433;DHT22;6789;47.678;9.158;2023-04-25T14:32:31;13.40;99.90
13433;DHT22;6789;47.678;9.158;2023-04-25T14:37:37;13.10;99.90
13433;DHT22;6789;47.678;9.158;2023-04-25T14:42:41;12.70;99.90
13433;DHT22;6789;47.678;9.158;2023-04-25T14:47:35;12.50;99.90
13433;DHT22;6789;47.678;9.158;2023-04-25T14:52:31;12.50;99.90
13433;DHT22;6789;47.678;9.158;2023-04-25T14:57:37;12.60;99.90
13433;DHT22;6789;47.678;9.158;2023-04-25T15:02:46;12.70;99.90
13433;DHT22;6789;47.678;9.158;2023-04-25T15:07:39;12.80;99.90
13433;DHT22;6789;47.678;9.158;2023-04-25T15:12:32;12.90;99.90
13433;DHT22;6789;47.678;9.158;2023-04-25T15:17:25;12.60;99.90
13433;DHT22;6789;47.678;9.158;2023-04-25T15:22:17;12.50;99.90
13433;DHT22;6789;47.678;9.158;2023-04-25T15:27:23;12.70;99.90
13433;DHT22;6789;47.678;9.158;2023-04-25T15:32:35;12.70;99.90
13433;DHT22;6789;47.678;9.158;2023-04-25T15:37:43;12.90;99.90
13433;DHT22;6789;47.678;9.158;2023-04-25T15:42:48;13.00;99.90
13433;DHT22;6789;47.678;9.158;2023-04-25T15:47:58;12.90;99.90
13433;DHT22;6789;47.678;9.158;2023-04-25T15:52:59;13.10;99.90
13433;DHT22;6789;47.678;9.158;2023-04-25T15:58:05;13.00;99.90
13433;DHT22;6789;47.678;9.158;2023-04-25T16:03:05;12.60;99.90
13433;DHT22;6789;47.678;9.158;2023-04-25T16:08:05;12.40;99.90
13433;DHT22;6789;47.678;9.158;2023-04-25T16:12:58;12.20;99.90
13433;DHT22;6789;47.678;9.158;2023-04-25T16:17:54;12.10;99.90
13433;DHT22;6789;47.678;9.158;2023-04-25T16:22:46;12.10;99.90
13433;DHT22;6789;47.678;9.158;2023-04-25T16:27:45;11.80;99.90
13433;DHT22;6789;47.678;9.158;2023-04-25T16:32:39;11.40;99.90
13433;DHT22;6789;47.678;9.158;2023-04-25T16:37:37;10.70;99.90
13433;DHT22;6789;47.678;9.158;2023-04-25T16:42:29;10.40;99.90
13433;DHT22;6789;47.678;9.158;2023-04-25T16:47:34;9.90;99.90
13433;DHT22;6789;47.678;9.158;2023-04-25T16:52:27;9.50;99.90
13433;DHT22;6789;47.678;9.158;2023-04-25T16:57:24;9.20;99.90
13433;DHT22;6789;47.678;9.158;2023-04-25T17:02:30;9.00;99.90
13433;DHT22;6789;47.678;9.158;2023-04-25T17:07:29;9.10;99.90
13433;DHT22;6789;47.678;9.158;2023-04-25T17:12:35;9.30;99.90
13433;DHT22;6789;47.678;9.158;2023-04-25T17:17:41;9.50;99.90
13433;DHT22;6789;47.678;9.158;2023-04-25T17:22:53;9.60;99.90
13433;DHT22;6789;47.678;9.158;2023-04-25T17:27:44;9.80;99.90
13433;DHT22;6789;47.678;9.158;2023-04-25T17:32:50;9.90;99.90
13433;DHT22;6789;47.678;9.158;2023-04-25T17:38:01;9.80;99.90
13433;DHT22;6789;47.678;9.158;2023-04-25T17:43:08;9.80;99.90
13433;DHT22;6789;47.678;9.158;2023-04-25T17:48:07;9.80;99.90
13433;DHT22;6789;47.678;9.158;2023-04-25T17:53:04;9.80;99.90
13433;DHT22;6789;47.678;9.158;2023-04-25T17:58:10;9.80;99.90
13433;DHT22;6789;47.678;9.158;2023-04-25T18:03:16;9.80;99.90
13433;DHT22;6789;47.678;9.158;2023-04-25T18:08:08;9.80;99.90
13433;DHT22;6789;47.678;9.158;2023-04-25T18:13:14;9.80;99.90
13433;DHT22;6789;47.678;9.158;2023-04-25T18:18:24;9.70;99.90
13433;DHT22;6789;47.678;9.158;2023-04-25T18:23:24;9.70;99.90
13433;DHT22;6789;47.678;9.158;2023-04-25T18:28:18;9.70;99.90
13433;DHT22;6789;47.678;9.158;2023-04-25T18:33:11;9.70;99.90
13433;DHT22;6789;47.678;9.158;2023-04-25T18:38:17;9.80;99.90
13433;DHT22;6789;47.678;9.158;2023-04-25T18:43:26;9.80;99.90
13433;DHT22;6789;47.678;9.158;2023-04-25T18:48:32;9.70;99.90
13433;DHT22;6789;47.678;9.158;2023-04-25T18:53:38;9.70;99.90
13433;DHT22;6789;47.678;9.158;2023-04-25T18:58:41;9.70;99.90
13433;DHT22;6789;47.678;9.158;2023-04-25T19:03:38;9.60;99.90
13433;DHT22;6789;47.678;9.158;2023-04-25T19:08:44;9.40;99.90
13433;DHT22;6789;47.678;9.158;2023-04-25T19:13:51;9.50;99.90
13433;DHT22;6789;47.678;9.158;2023-04-25T19:18:45;9.40;99.90
13433;DHT22;6789;47.678;9.158;2023-04-25T19:23:45;9.40;99.90
13433;DHT22;6789;47.678;9.158;2023-04-25T19:29:08;9.40;99.90
13433;DHT22;6789;47.678;9.158;2023-04-25T19:34:13;9.30;99.90
13433;DHT22;6789;47.678;9.158;2023-04-25T19:39:07;9.20;99.90
13433;DHT22;6789;47.678;9.158;2023-04-25T19:44:01;9.20;99.90
13433;DHT22;6789;47.678;9.158;2023-04-25T19:49:15;9.10;99.90
13433;DHT22;6789;47.678;9.158;2023-04-25T19:54:14;8.90;99.90
13433;DHT22;6789;47.678;9.158;2023-04-25T19:59:07;8.90;99.90
13433;DHT22;6789;47.678;9.158;2023-04-25T20:04:01;8.90;99.90
13433;DHT22;6789;47.678;9.158;2023-04-25T20:08:55;8.80;99.90
13433;DHT22;6789;47.678;9.158;2023-04-25T20:13:48;8.80;99.90
13433;DHT22;6789;47.678;9.158;2023-04-25T20:18:52;8.80;99.90
13433;DHT22;6789;47.678;9.158;2023-04-25T20:23:45;8.80;99.90
13433;DHT22;6789;47.678;9.158;2023-04-25T20:28:38;8.80;99.90
13433;DHT22;6789;47.678;9.158;2023-04-25T20:33:45;8.80;99.90
13433;DHT22;6789;47.678;9.158;2023-04-25T20:38:51;8.80;99.90
13433;DHT22;6789;47.678;9.158;2023-04-25T20:43:58;8.80;99.90
13433;DHT22;6789;47.678;9.158;2023-04-25T20:48:58;8.80;99.90
13433;DHT22;6789;47.678;9.158;2023-04-25T20:54:31;8.80;99.90
13433;DHT22;6789;47.678;9.158;2023-04-25T20:59:56;8.90;99.90
13433;DHT22;6789;47.678;9.158;2023-04-25T21:05:18;8.70;99.90
13433;DHT22;6789;47.678;9.158;2023-04-25T21:10:52;8.60;99.90
13433;DHT22;6789;47.678;9.158;2023-04-25T21:15:51;8.60;99.90
13433;DHT22;6789;47.678;9.158;2023-04-25T21:20:58;8.60;99.90
13433;DHT22;6789;47.678;9.158;2023-04-25T21:25:53;8.60;99.90
13433;DHT22;6789;47.678;9.158;2023-04-25T21:31:00;8.60;99.90
13433;DHT22;6789;47.678;9.158;2023-04-25T21:36:13;8.50;99.90
13433;DHT22;6789;47.678;9.158;2023-04-25T21:41:39;8.60;99.90
13433;DHT22;6789;47.678;9.158;2023-04-25T21:46:47;8.70;99.90
13433;DHT22;6789;47.678;9.158;2023-04-25T21:51:40;8.50;99.90
13433;DHT22;6789;47.678;9.158;2023-04-25T21:56:32;8.40;99.90
13433;DHT22;6789;47.678;9.158;2023-04-25T22:01:49;8.30;99.90
13433;DHT22;6789;47.678;9.158;2023-04-25T22:06:44;8.30;99.90
13433;DHT22;6789;47.678;9.158;2023-04-25T22:11:52;8.30;99.90
13433;DHT22;6789;47.678;9.158;2023-04-25T22:17:19;8.20;99.90
13433;DHT22;6789;47.678;9.158;2023-04-25T22:22:43;8.20;99.90
13433;DHT22;6789;47.678;9.158;2023-04-25T22:34:10;8.10;99.90
13433;DHT22;6789;47.678;9.158;2023-04-25T22:39:50;8.10;99.90
13433;DHT22;6789;47.678;9.158;2023-04-25T22:45:25;8.00;99.90
13433;DHT22;6789;47.678;9.158;2023-04-25T22:50:36;8.10;99.90
13433;DHT22;6789;47.678;9.158;2023-04-25T22:55:32;8.20;99.90
13433;DHT22;6789;47.678;9.158;2023-04-25T23:00:56;8.10;99.90
13433;DHT22;6789;47.678;9.158;2023-04-25T23:05:49;8.10;99.90
13433;DHT22;6789;47.678;9.158;2023-04-25T23:10:41;8.20;99.90
13433;DHT22;6789;47.678;9.158;2023-04-25T23:15:36;8.10;99.90
13433;DHT22;6789;47.678;9.158;2023-04-25T23:20:28;8.00;99.90
13433;DHT22;6789;47.678;9.158;2023-04-25T23:25:20;7.80;99.90
13433;DHT22;6789;47.678;9.158;2023-04-25T23:30:12;7.80;99.90
13433;DHT22;6789;47.678;9.158;2023-04-25T23:35:05;7.80;99.90
13433;DHT22;6789;47.678;9.158;2023-04-25T23:39:57;7.70;99.90
13433;DHT22;6789;47.678;9.158;2023-04-25T23:44:49;7.60;99.90
13433;DHT22;6789;47.678;9.158;2023-04-25T23:49:40;7.60;99.90
13433;DHT22;6789;47.678;9.158;2023-04-25T23:54:32;7.50;99.90
13433;DHT22;6789;47.678;9.158;2023-04-25T23:59:24;7.50;99.90
